EmailTwitter


Observations de surface / Royaume-Uni / EGLL (03772)

Régions: Québec | Canada | États-Unis | Europe | France | UK | Ailleurs
Station
Affichage
Infos & localisation pour EGLL (03772) | Aide pour décoder les METARs

Observations prises le 2019-12-10 à 02H20 UTC à LONDON/HEATHROW, UK (EGLL)

Température: 2.0 Celsius

Point de rosée: 1.0 Celsius

Humidité relative: 93%

Vents: Variable à 2 km/h ou 1 noeuds.

Pression au niveau moyen de la mer: 102.40 kilopascals.

Visibilité horizontale: 6.21 milles terrestres ou 9.94 kilomètres.

Observation METAR:

EGLL 100220Z AUTO VRB01KT 9999 NCD 02/01 Q1024=